sensor_id;sensor_type;location;lat;lon;timestamp;temperature;humidity
20998;DHT22;10657;51.276;6.390;2023-12-20T00:02:15;7.50;99.90
20998;DHT22;10657;51.276;6.390;2023-12-20T00:04:42;7.50;99.90
20998;DHT22;10657;51.276;6.390;2023-12-20T00:07:09;7.50;99.90
20998;DHT22;10657;51.276;6.390;2023-12-20T00:09:36;7.40;99.90
20998;DHT22;10657;51.276;6.390;2023-12-20T00:12:03;7.40;99.90
20998;DHT22;10657;51.276;6.390;2023-12-20T00:14:29;7.40;99.90
20998;DHT22;10657;51.276;6.390;2023-12-20T00:16:59;7.40;99.90
20998;DHT22;10657;51.276;6.390;2023-12-20T00:19:25;7.50;99.90
20998;DHT22;10657;51.276;6.390;2023-12-20T00:21:52;7.40;99.90
20998;DHT22;10657;51.276;6.390;2023-12-20T00:24:19;7.40;99.90
20998;DHT22;10657;51.276;6.390;2023-12-20T00:26:46;7.40;99.90
20998;DHT22;10657;51.276;6.390;2023-12-20T00:29:13;7.40;99.90
20998;DHT22;10657;51.276;6.390;2023-12-20T00:31:40;7.30;99.90
20998;DHT22;10657;51.276;6.390;2023-12-20T00:34:06;7.30;99.90
20998;DHT22;10657;51.276;6.390;2023-12-20T00:36:33;7.30;99.90
20998;DHT22;10657;51.276;6.390;2023-12-20T00:39:00;7.40;99.90
20998;DHT22;10657;51.276;6.390;2023-12-20T00:41:27;7.40;99.90
20998;DHT22;10657;51.276;6.390;2023-12-20T00:43:53;7.40;99.90
20998;DHT22;10657;51.276;6.390;2023-12-20T00:46:20;7.40;99.90
20998;DHT22;10657;51.276;6.390;2023-12-20T00:48:47;7.40;99.90
20998;DHT22;10657;51.276;6.390;2023-12-20T00:51:14;7.40;99.90
20998;DHT22;10657;51.276;6.390;2023-12-20T00:53:40;7.40;99.90
20998;DHT22;10657;51.276;6.390;2023-12-20T00:56:07;7.30;99.90
20998;DHT22;10657;51.276;6.390;2023-12-20T00:58:34;7.30;99.90
20998;DHT22;10657;51.276;6.390;2023-12-20T01:01:01;7.30;99.90
20998;DHT22;10657;51.276;6.390;2023-12-20T01:03:28;7.30;99.90
20998;DHT22;10657;51.276;6.390;2023-12-20T01:05:55;7.30;99.90
20998;DHT22;10657;51.276;6.390;2023-12-20T01:08:22;7.20;99.90
20998;DHT22;10657;51.276;6.390;2023-12-20T01:10:49;7.20;99.90
20998;DHT22;10657;51.276;6.390;2023-12-20T01:13:16;7.20;99.90
20998;DHT22;10657;51.276;6.390;2023-12-20T01:15:42;7.20;99.90
20998;DHT22;10657;51.276;6.390;2023-12-20T01:18:09;7.10;99.90
20998;DHT22;10657;51.276;6.390;2023-12-20T01:20:38;7.10;99.90
20998;DHT22;10657;51.276;6.390;2023-12-20T01:23:05;7.00;99.90
20998;DHT22;10657;51.276;6.390;2023-12-20T01:25:31;7.00;99.90
20998;DHT22;10657;51.276;6.390;2023-12-20T01:27:58;7.00;99.90
20998;DHT22;10657;51.276;6.390;2023-12-20T01:30:25;7.00;99.90
20998;DHT22;10657;51.276;6.390;2023-12-20T01:32:51;7.00;99.90
20998;DHT22;10657;51.276;6.390;2023-12-20T01:35:18;6.90;99.90
20998;DHT22;10657;51.276;6.390;2023-12-20T01:37:45;6.90;99.90
20998;DHT22;10657;51.276;6.390;2023-12-20T01:40:13;6.80;99.90
20998;DHT22;10657;51.276;6.390;2023-12-20T01:42:40;6.80;99.90
20998;DHT22;10657;51.276;6.390;2023-12-20T01:45:07;6.70;99.90
20998;DHT22;10657;51.276;6.390;2023-12-20T01:47:34;6.70;99.90
20998;DHT22;10657;51.276;6.390;2023-12-20T01:50:02;6.70;99.90
20998;DHT22;10657;51.276;6.390;2023-12-20T01:52:30;6.60;99.90
20998;DHT22;10657;51.276;6.390;2023-12-20T01:55:00;6.60;99.90
20998;DHT22;10657;51.276;6.390;2023-12-20T01:57:30;6.60;99.90
20998;DHT22;10657;51.276;6.390;2023-12-20T01:59:57;6.60;99.90
20998;DHT22;10657;51.276;6.390;2023-12-20T02:02:28;6.50;99.90
20998;DHT22;10657;51.276;6.390;2023-12-20T02:04:56;6.50;99.90
20998;DHT22;10657;51.276;6.390;2023-12-20T02:07:23;6.50;99.90
20998;DHT22;10657;51.276;6.390;2023-12-20T02:09:50;6.50;99.90
20998;DHT22;10657;51.276;6.390;2023-12-20T02:12:17;6.50;99.90
20998;DHT22;10657;51.276;6.390;2023-12-20T02:14:46;6.50;99.90
20998;DHT22;10657;51.276;6.390;2023-12-20T02:17:13;6.40;99.90
20998;DHT22;10657;51.276;6.390;2023-12-20T02:19:40;6.40;99.90
20998;DHT22;10657;51.276;6.390;2023-12-20T02:22:11;6.30;99.90
20998;DHT22;10657;51.276;6.390;2023-12-20T02:24:38;6.20;99.90
20998;DHT22;10657;51.276;6.390;2023-12-20T02:27:06;6.30;99.90
20998;DHT22;10657;51.276;6.390;2023-12-20T02:29:34;6.30;99.90
20998;DHT22;10657;51.276;6.390;2023-12-20T02:32:01;6.30;99.90
20998;DHT22;10657;51.276;6.390;2023-12-20T02:34:29;6.30;99.90
20998;DHT22;10657;51.276;6.390;2023-12-20T02:36:58;6.20;99.90
20998;DHT22;10657;51.276;6.390;2023-12-20T02:39:25;6.20;99.90
20998;DHT22;10657;51.276;6.390;2023-12-20T02:41:52;6.20;99.90
20998;DHT22;10657;51.276;6.390;2023-12-20T02:44:19;6.10;99.90
20998;DHT22;10657;51.276;6.390;2023-12-20T02:46:45;6.00;99.90
20998;DHT22;10657;51.276;6.390;2023-12-20T02:49:12;6.00;99.90
20998;DHT22;10657;51.276;6.390;2023-12-20T02:51:39;6.00;99.90
20998;DHT22;10657;51.276;6.390;2023-12-20T02:54:06;6.00;99.90
20998;DHT22;10657;51.276;6.390;2023-12-20T02:56:33;5.90;99.90
20998;DHT22;10657;51.276;6.390;2023-12-20T02:59:00;5.90;99.90
20998;DHT22;10657;51.276;6.390;2023-12-20T03:01:28;5.90;99.90
20998;DHT22;10657;51.276;6.390;2023-12-20T03:03:55;5.80;99.90
20998;DHT22;10657;51.276;6.390;2023-12-20T03:06:22;5.90;99.90
20998;DHT22;10657;51.276;6.390;2023-12-20T03:08:49;5.80;99.90
20998;DHT22;10657;51.276;6.390;2023-12-20T03:11:18;5.80;99.90
20998;DHT22;10657;51.276;6.390;2023-12-20T03:13:45;5.90;99.90
20998;DHT22;10657;51.276;6.390;2023-12-20T03:16:13;5.90;99.90
20998;DHT22;10657;51.276;6.390;2023-12-20T03:18:40;5.90;99.90
20998;DHT22;10657;51.276;6.390;2023-12-20T03:21:07;5.90;99.90
20998;DHT22;10657;51.276;6.390;2023-12-20T03:23:34;5.80;99.90
20998;DHT22;10657;51.276;6.390;2023-12-20T03:26:00;5.90;99.90
20998;DHT22;10657;51.276;6.390;2023-12-20T03:28:28;5.90;99.90
20998;DHT22;10657;51.276;6.390;2023-12-20T03:30:55;5.90;99.90
20998;DHT22;10657;51.276;6.390;2023-12-20T03:33:22;5.80;99.90
20998;DHT22;10657;51.276;6.390;2023-12-20T03:35:48;5.90;99.90
20998;DHT22;10657;51.276;6.390;2023-12-20T03:38:15;5.90;99.90
20998;DHT22;10657;51.276;6.390;2023-12-20T03:40:42;5.90;99.90
20998;DHT22;10657;51.276;6.390;2023-12-20T03:43:09;5.80;99.90
20998;DHT22;10657;51.276;6.390;2023-12-20T03:45:35;5.80;99.90
20998;DHT22;10657;51.276;6.390;2023-12-20T03:48:02;5.80;99.90
20998;DHT22;10657;51.276;6.390;2023-12-20T03:50:29;5.80;99.90
20998;DHT22;10657;51.276;6.390;2023-12-20T03:52:56;5.80;99.90
20998;DHT22;10657;51.276;6.390;2023-12-20T03:55:23;5.70;99.90
20998;DHT22;10657;51.276;6.390;2023-12-20T03:57:50;5.80;99.90
20998;DHT22;10657;51.276;6.390;2023-12-20T04:00:17;5.80;99.90
20998;DHT22;10657;51.276;6.390;2023-12-20T04:02:44;5.80;99.90
20998;DHT22;10657;51.276;6.390;2023-12-20T04:05:11;5.80;99.90
20998;DHT22;10657;51.276;6.390;2023-12-20T04:07:38;5.80;99.90
20998;DHT22;10657;51.276;6.390;2023-12-20T04:10:05;5.80;99.90
20998;DHT22;10657;51.276;6.390;2023-12-20T04:12:33;5.80;99.90
20998;DHT22;10657;51.276;6.390;2023-12-20T04:15:00;5.80;99.90
20998;DHT22;10657;51.276;6.390;2023-12-20T04:17:26;5.70;99.90
20998;DHT22;10657;51.276;6.390;2023-12-20T04:19:53;5.80;99.90
20998;DHT22;10657;51.276;6.390;2023-12-20T04:22:20;5.80;99.90
20998;DHT22;10657;51.276;6.390;2023-12-20T04:24:47;5.70;99.90
20998;DHT22;10657;51.276;6.390;2023-12-20T04:27:14;5.70;99.90
20998;DHT22;10657;51.276;6.390;2023-12-20T04:29:40;5.80;99.90
20998;DHT22;10657;51.276;6.390;2023-12-20T04:32:07;5.70;99.90
20998;DHT22;10657;51.276;6.390;2023-12-20T04:34:34;5.70;99.90
20998;DHT22;10657;51.276;6.390;2023-12-20T04:37:01;5.60;99.90
20998;DHT22;10657;51.276;6.390;2023-12-20T04:39:28;5.70;99.90
20998;DHT22;10657;51.276;6.390;2023-12-20T04:41:55;5.70;99.90
20998;DHT22;10657;51.276;6.390;2023-12-20T04:44:22;5.70;99.90
20998;DHT22;10657;51.276;6.390;2023-12-20T04:46:48;5.60;99.90
20998;DHT22;10657;51.276;6.390;2023-12-20T04:49:15;5.70;99.90
20998;DHT22;10657;51.276;6.390;2023-12-20T04:51:42;5.70;99.90
20998;DHT22;10657;51.276;6.390;2023-12-20T04:54:08;5.70;99.90
20998;DHT22;10657;51.276;6.390;2023-12-20T04:56:37;5.70;99.90
20998;DHT22;10657;51.276;6.390;2023-12-20T04:59:03;5.70;99.90
20998;DHT22;10657;51.276;6.390;2023-12-20T05:01:32;5.70;99.90
20998;DHT22;10657;51.276;6.390;2023-12-20T05:03:59;5.70;99.90
20998;DHT22;10657;51.276;6.390;2023-12-20T05:06:26;5.70;99.90
20998;DHT22;10657;51.276;6.390;2023-12-20T05:08:53;5.70;99.90
20998;DHT22;10657;51.276;6.390;2023-12-20T05:11:19;5.70;99.90
20998;DHT22;10657;51.276;6.390;2023-12-20T05:13:46;5.80;99.90
20998;DHT22;10657;51.276;6.390;2023-12-20T05:16:16;5.80;99.90
20998;DHT22;10657;51.276;6.390;2023-12-20T05:18:46;5.80;99.90
20998;DHT22;10657;51.276;6.390;2023-12-20T05:21:13;5.80;99.90
20998;DHT22;10657;51.276;6.390;2023-12-20T05:23:40;5.80;99.90
20998;DHT22;10657;51.276;6.390;2023-12-20T05:26:06;5.80;99.90
20998;DHT22;10657;51.276;6.390;2023-12-20T05:28:33;5.80;99.90
20998;DHT22;10657;51.276;6.390;2023-12-20T05:31:00;5.90;99.90
20998;DHT22;10657;51.276;6.390;2023-12-20T05:33:27;5.90;99.90
20998;DHT22;10657;51.276;6.390;2023-12-20T05:35:54;5.80;99.90
20998;DHT22;10657;51.276;6.390;2023-12-20T05:38:20;5.90;99.90
20998;DHT22;10657;51.276;6.390;2023-12-20T05:40:47;5.90;99.90
20998;DHT22;10657;51.276;6.390;2023-12-20T05:43:14;5.90;99.90
20998;DHT22;10657;51.276;6.390;2023-12-20T05:45:43;5.90;99.90
20998;DHT22;10657;51.276;6.390;2023-12-20T05:48:10;5.90;99.90
20998;DHT22;10657;51.276;6.390;2023-12-20T05:50:37;6.00;99.90
20998;DHT22;10657;51.276;6.390;2023-12-20T05:53:03;6.00;99.90
20998;DHT22;10657;51.276;6.390;2023-12-20T05:55:30;6.00;99.90
20998;DHT22;10657;51.276;6.390;2023-12-20T05:57:57;6.00;99.90
20998;DHT22;10657;51.276;6.390;2023-12-20T06:00:26;6.00;99.90
20998;DHT22;10657;51.276;6.390;2023-12-20T06:02:53;6.00;99.90
20998;DHT22;10657;51.276;6.390;2023-12-20T06:05:22;6.00;99.90
20998;DHT22;10657;51.276;6.390;2023-12-20T06:07:55;6.00;99.90
20998;DHT22;10657;51.276;6.390;2023-12-20T06:10:27;6.00;99.90
20998;DHT22;10657;51.276;6.390;2023-12-20T06:12:54;6.10;99.90
20998;DHT22;10657;51.276;6.390;2023-12-20T06:15:22;6.10;99.90
20998;DHT22;10657;51.276;6.390;2023-12-20T06:17:49;6.10;99.90
20998;DHT22;10657;51.276;6.390;2023-12-20T06:20:17;6.10;99.90
20998;DHT22;10657;51.276;6.390;2023-12-20T06:22:44;6.10;99.90
20998;DHT22;10657;51.276;6.390;2023-12-20T06:25:10;6.10;99.90
20998;DHT22;10657;51.276;6.390;2023-12-20T06:27:37;6.10;99.90
20998;DHT22;10657;51.276;6.390;2023-12-20T06:30:04;6.10;99.90
20998;DHT22;10657;51.276;6.390;2023-12-20T06:32:37;6.10;99.90
20998;DHT22;10657;51.276;6.390;2023-12-20T06:35:05;6.10;99.90
20998;DHT22;10657;51.276;6.390;2023-12-20T06:37:32;6.10;99.90
20998;DHT22;10657;51.276;6.390;2023-12-20T06:39:59;6.10;99.90
20998;DHT22;10657;51.276;6.390;2023-12-20T06:42:25;6.10;99.90
20998;DHT22;10657;51.276;6.390;2023-12-20T06:44:52;6.10;99.90
20998;DHT22;10657;51.276;6.390;2023-12-20T06:47:19;6.10;99.90
20998;DHT22;10657;51.276;6.390;2023-12-20T06:49:46;6.10;99.90
20998;DHT22;10657;51.276;6.390;2023-12-20T06:52:13;6.20;99.90
20998;DHT22;10657;51.276;6.390;2023-12-20T06:54:40;6.10;99.90
20998;DHT22;10657;51.276;6.390;2023-12-20T06:57:06;6.10;99.90
20998;DHT22;10657;51.276;6.390;2023-12-20T06:59:37;6.20;99.90
20998;DHT22;10657;51.276;6.390;2023-12-20T07:02:04;6.20;99.90
20998;DHT22;10657;51.276;6.390;2023-12-20T07:04:31;6.20;99.90
20998;DHT22;10657;51.276;6.390;2023-12-20T07:07:01;6.20;99.90
20998;DHT22;10657;51.276;6.390;2023-12-20T07:09:28;6.20;99.90
20998;DHT22;10657;51.276;6.390;2023-12-20T07:11:55;6.20;99.90
20998;DHT22;10657;51.276;6.390;2023-12-20T07:14:21;6.20;99.90
20998;DHT22;10657;51.276;6.390;2023-12-20T07:16:48;6.20;99.90
20998;DHT22;10657;51.276;6.390;2023-12-20T07:19:15;6.30;99.90
20998;DHT22;10657;51.276;6.390;2023-12-20T07:21:43;6.20;99.90
20998;DHT22;10657;51.276;6.390;2023-12-20T07:24:10;6.30;99.90
20998;DHT22;10657;51.276;6.390;2023-12-20T07:26:37;6.30;99.90
20998;DHT22;10657;51.276;6.390;2023-12-20T07:29:05;6.30;99.90
20998;DHT22;10657;51.276;6.390;2023-12-20T07:31:34;6.40;99.90
20998;DHT22;10657;51.276;6.390;2023-12-20T07:34:01;6.40;99.90
20998;DHT22;10657;51.276;6.390;2023-12-20T07:36:28;6.40;99.90
20998;DHT22;10657;51.276;6.390;2023-12-20T07:38:55;6.30;99.90
20998;DHT22;10657;51.276;6.390;2023-12-20T07:41:21;6.30;99.90
20998;DHT22;10657;51.276;6.390;2023-12-20T07:43:50;6.30;99.90
20998;DHT22;10657;51.276;6.390;2023-12-20T07:46:16;6.40;99.90
20998;DHT22;10657;51.276;6.390;2023-12-20T07:48:44;6.40;99.90
20998;DHT22;10657;51.276;6.390;2023-12-20T07:51:13;6.40;99.90
20998;DHT22;10657;51.276;6.390;2023-12-20T07:53:39;6.40;99.90
20998;DHT22;10657;51.276;6.390;2023-12-20T07:56:19;6.40;99.90
20998;DHT22;10657;51.276;6.390;2023-12-20T07:58:46;6.40;99.90
20998;DHT22;10657;51.276;6.390;2023-12-20T08:01:19;6.30;99.90
20998;DHT22;10657;51.276;6.390;2023-12-20T08:03:49;6.30;99.90
20998;DHT22;10657;51.276;6.390;2023-12-20T08:06:16;6.30;99.90
20998;DHT22;10657;51.276;6.390;2023-12-20T08:08:44;6.20;99.90
20998;DHT22;10657;51.276;6.390;2023-12-20T08:11:11;6.20;99.90
20998;DHT22;10657;51.276;6.390;2023-12-20T08:13:38;6.20;99.90
20998;DHT22;10657;51.276;6.390;2023-12-20T08:16:07;6.20;99.90
20998;DHT22;10657;51.276;6.390;2023-12-20T08:18:34;6.20;99.90
20998;DHT22;10657;51.276;6.390;2023-12-20T08:21:01;6.20;99.90
20998;DHT22;10657;51.276;6.390;2023-12-20T08:23:28;6.20;99.90
20998;DHT22;10657;51.276;6.390;2023-12-20T08:25:58;6.20;99.90
20998;DHT22;10657;51.276;6.390;2023-12-20T08:28:25;6.20;99.90
20998;DHT22;10657;51.276;6.390;2023-12-20T08:30:52;6.20;99.90
20998;DHT22;10657;51.276;6.390;2023-12-20T08:33:20;6.20;99.90
20998;DHT22;10657;51.276;6.390;2023-12-20T08:35:47;6.20;99.90
20998;DHT22;10657;51.276;6.390;2023-12-20T08:38:21;6.20;99.90
20998;DHT22;10657;51.276;6.390;2023-12-20T08:40:48;6.20;99.90
20998;DHT22;10657;51.276;6.390;2023-12-20T08:43:15;6.20;99.90
20998;DHT22;10657;51.276;6.390;2023-12-20T08:45:42;6.30;99.90
20998;DHT22;10657;51.276;6.390;2023-12-20T08:48:09;6.30;99.90
20998;DHT22;10657;51.276;6.390;2023-12-20T08:50:36;6.30;99.90
20998;DHT22;10657;51.276;6.390;2023-12-20T08:53:11;6.30;99.90
20998;DHT22;10657;51.276;6.390;2023-12-20T08:55:38;6.30;99.90
20998;DHT22;10657;51.276;6.390;2023-12-20T08:58:05;6.30;99.90
20998;DHT22;10657;51.276;6.390;2023-12-20T09:00:34;6.30;99.90
20998;DHT22;10657;51.276;6.390;2023-12-20T09:03:02;6.30;99.90
20998;DHT22;10657;51.276;6.390;2023-12-20T09:05:28;6.30;99.90
20998;DHT22;10657;51.276;6.390;2023-12-20T09:07:55;6.40;99.90
20998;DHT22;10657;51.276;6.390;2023-12-20T09:10:22;6.30;99.90
20998;DHT22;10657;51.276;6.390;2023-12-20T09:12:50;6.40;99.90
20998;DHT22;10657;51.276;6.390;2023-12-20T09:15:17;6.40;99.90
20998;DHT22;10657;51.276;6.390;2023-12-20T09:17:44;6.40;99.90
20998;DHT22;10657;51.276;6.390;2023-12-20T09:20:12;6.40;99.90
20998;DHT22;10657;51.276;6.390;2023-12-20T09:22:40;6.50;99.90
20998;DHT22;10657;51.276;6.390;2023-12-20T09:25:09;6.50;99.90
20998;DHT22;10657;51.276;6.390;2023-12-20T09:27:37;6.50;99.90
20998;DHT22;10657;51.276;6.390;2023-12-20T09:30:07;6.50;99.90
20998;DHT22;10657;51.276;6.390;2023-12-20T09:32:36;6.50;99.90
20998;DHT22;10657;51.276;6.390;2023-12-20T09:35:06;6.50;99.90
20998;DHT22;10657;51.276;6.390;2023-12-20T09:37:35;6.50;99.90
20998;DHT22;10657;51.276;6.390;2023-12-20T09:40:03;6.50;99.90
20998;DHT22;10657;51.276;6.390;2023-12-20T09:42:57;6.50;99.90
20998;DHT22;10657;51.276;6.390;2023-12-20T09:45:24;6.50;99.90
20998;DHT22;10657;51.276;6.390;2023-12-20T09:47:53;6.50;99.90
20998;DHT22;10657;51.276;6.390;2023-12-20T09:50:22;6.50;99.90
20998;DHT22;10657;51.276;6.390;2023-12-20T09:52:53;6.60;99.90
20998;DHT22;10657;51.276;6.390;2023-12-20T09:55:25;6.50;99.90
20998;DHT22;10657;51.276;6.390;2023-12-20T09:57:53;6.60;99.90
20998;DHT22;10657;51.276;6.390;2023-12-20T10:00:20;6.50;99.90
20998;DHT22;10657;51.276;6.390;2023-12-20T10:02:56;6.60;99.90
20998;DHT22;10657;51.276;6.390;2023-12-20T10:05:28;6.50;99.90
20998;DHT22;10657;51.276;6.390;2023-12-20T10:07:56;6.60;99.90
20998;DHT22;10657;51.276;6.390;2023-12-20T10:10:24;6.50;99.90
20998;DHT22;10657;51.276;6.390;2023-12-20T10:13:09;6.50;99.90
20998;DHT22;10657;51.276;6.390;2023-12-20T10:15:42;6.60;99.90
20998;DHT22;10657;51.276;6.390;2023-12-20T10:18:09;6.60;99.90
20998;DHT22;10657;51.276;6.390;2023-12-20T10:20:37;6.60;99.90
20998;DHT22;10657;51.276;6.390;2023-12-20T10:23:05;6.60;99.90
20998;DHT22;10657;51.276;6.390;2023-12-20T10:25:32;6.70;99.90
20998;DHT22;10657;51.276;6.390;2023-12-20T10:28:15;6.70;99.90
20998;DHT22;10657;51.276;6.390;2023-12-20T10:30:49;6.70;99.90
20998;DHT22;10657;51.276;6.390;2023-12-20T10:33:26;6.70;99.90
20998;DHT22;10657;51.276;6.390;2023-12-20T10:35:54;6.80;99.90
20998;DHT22;10657;51.276;6.390;2023-12-20T10:38:21;6.80;99.90
20998;DHT22;10657;51.276;6.390;2023-12-20T10:40:49;6.80;99.90
20998;DHT22;10657;51.276;6.390;2023-12-20T10:43:17;6.80;99.90
20998;DHT22;10657;51.276;6.390;2023-12-20T10:45:44;6.80;99.90
20998;DHT22;10657;51.276;6.390;2023-12-20T10:48:11;6.80;99.90
20998;DHT22;10657;51.276;6.390;2023-12-20T10:50:41;6.80;99.90
20998;DHT22;10657;51.276;6.390;2023-12-20T10:53:08;6.80;99.90
20998;DHT22;10657;51.276;6.390;2023-12-20T10:55:37;6.90;99.90
20998;DHT22;10657;51.276;6.390;2023-12-20T10:58:08;6.80;99.90
20998;DHT22;10657;51.276;6.390;2023-12-20T11:00:39;6.90;99.90
20998;DHT22;10657;51.276;6.390;2023-12-20T11:03:11;6.90;99.90
20998;DHT22;10657;51.276;6.390;2023-12-20T11:05:53;6.80;99.90
20998;DHT22;10657;51.276;6.390;2023-12-20T11:11:10;6.80;99.90
20998;DHT22;10657;51.276;6.390;2023-12-20T11:16:20;6.80;99.90
20998;DHT22;10657;51.276;6.390;2023-12-20T11:18:51;6.80;99.90
20998;DHT22;10657;51.276;6.390;2023-12-20T11:21:18;6.80;99.90
20998;DHT22;10657;51.276;6.390;2023-12-20T11:23:45;6.80;99.90
20998;DHT22;10657;51.276;6.390;2023-12-20T11:26:15;6.80;99.90
20998;DHT22;10657;51.276;6.390;2023-12-20T11:28:43;6.80;99.90
20998;DHT22;10657;51.276;6.390;2023-12-20T11:31:14;6.80;99.90
20998;DHT22;10657;51.276;6.390;2023-12-20T11:33:42;6.80;99.90
20998;DHT22;10657;51.276;6.390;2023-12-20T11:36:14;6.90;99.90
20998;DHT22;10657;51.276;6.390;2023-12-20T11:38:57;6.90;99.90
20998;DHT22;10657;51.276;6.390;2023-12-20T11:41:25;6.90;99.90
20998;DHT22;10657;51.276;6.390;2023-12-20T11:43:55;7.00;99.90
20998;DHT22;10657;51.276;6.390;2023-12-20T11:46:23;6.90;99.90
20998;DHT22;10657;51.276;6.390;2023-12-20T11:48:53;7.00;99.90
20998;DHT22;10657;51.276;6.390;2023-12-20T11:51:21;7.00;99.90
20998;DHT22;10657;51.276;6.390;2023-12-20T11:53:51;7.00;99.90
20998;DHT22;10657;51.276;6.390;2023-12-20T11:56:19;7.00;99.90
20998;DHT22;10657;51.276;6.390;2023-12-20T11:58:48;7.00;99.90
20998;DHT22;10657;51.276;6.390;2023-12-20T12:01:17;7.00;99.90
20998;DHT22;10657;51.276;6.390;2023-12-20T12:03:45;6.90;99.90
20998;DHT22;10657;51.276;6.390;2023-12-20T12:06:12;7.00;99.90
20998;DHT22;10657;51.276;6.390;2023-12-20T12:08:42;6.90;99.90
20998;DHT22;10657;51.276;6.390;2023-12-20T12:11:09;6.90;99.90
20998;DHT22;10657;51.276;6.390;2023-12-20T12:13:36;6.90;99.90
20998;DHT22;10657;51.276;6.390;2023-12-20T12:16:03;6.90;99.90
20998;DHT22;10657;51.276;6.390;2023-12-20T12:18:31;7.00;99.90
20998;DHT22;10657;51.276;6.390;2023-12-20T12:21:01;7.00;99.90
20998;DHT22;10657;51.276;6.390;2023-12-20T12:23:35;6.90;99.90
20998;DHT22;10657;51.276;6.390;2023-12-20T12:26:06;7.00;99.90
20998;DHT22;10657;51.276;6.390;2023-12-20T12:28:34;7.00;99.90
20998;DHT22;10657;51.276;6.390;2023-12-20T12:31:01;7.00;99.90
20998;DHT22;10657;51.276;6.390;2023-12-20T12:33:29;6.90;99.90
20998;DHT22;10657;51.276;6.390;2023-12-20T12:35:56;7.00;99.90
20998;DHT22;10657;51.276;6.390;2023-12-20T12:38:30;7.00;99.90
20998;DHT22;10657;51.276;6.390;2023-12-20T12:41:01;6.90;99.90
20998;DHT22;10657;51.276;6.390;2023-12-20T12:43:28;6.80;99.90
20998;DHT22;10657;51.276;6.390;2023-12-20T12:45:55;6.80;99.90
20998;DHT22;10657;51.276;6.390;2023-12-20T12:48:24;6.80;99.90
20998;DHT22;10657;51.276;6.390;2023-12-20T12:50:51;6.80;99.90
20998;DHT22;10657;51.276;6.390;2023-12-20T12:53:22;6.80;99.90
20998;DHT22;10657;51.276;6.390;2023-12-20T12:55:49;6.80;99.90
20998;DHT22;10657;51.276;6.390;2023-12-20T12:58:19;6.80;99.90
20998;DHT22;10657;51.276;6.390;2023-12-20T13:00:46;6.80;99.90
20998;DHT22;10657;51.276;6.390;2023-12-20T13:03:13;6.80;99.90
20998;DHT22;10657;51.276;6.390;2023-12-20T13:05:39;6.80;99.90
20998;DHT22;10657;51.276;6.390;2023-12-20T13:08:10;6.90;99.90
20998;DHT22;10657;51.276;6.390;2023-12-20T13:10:38;6.90;99.90
20998;DHT22;10657;51.276;6.390;2023-12-20T13:13:05;6.90;99.90
20998;DHT22;10657;51.276;6.390;2023-12-20T13:15:32;6.90;99.90
20998;DHT22;10657;51.276;6.390;2023-12-20T13:17:59;6.90;99.90
20998;DHT22;10657;51.276;6.390;2023-12-20T13:20:29;6.80;99.90
20998;DHT22;10657;51.276;6.390;2023-12-20T13:22:56;6.80;99.90
20998;DHT22;10657;51.276;6.390;2023-12-20T13:25:23;6.80;99.90
20998;DHT22;10657;51.276;6.390;2023-12-20T13:27:53;6.80;99.90
20998;DHT22;10657;51.276;6.390;2023-12-20T13:30:20;6.90;99.90
20998;DHT22;10657;51.276;6.390;2023-12-20T13:32:47;6.90;99.90
20998;DHT22;10657;51.276;6.390;2023-12-20T13:35:15;6.90;99.90
20998;DHT22;10657;51.276;6.390;2023-12-20T13:37:42;6.90;99.90
20998;DHT22;10657;51.276;6.390;2023-12-20T13:40:11;6.90;99.90
20998;DHT22;10657;51.276;6.390;2023-12-20T13:42:39;6.90;99.90
20998;DHT22;10657;51.276;6.390;2023-12-20T13:45:11;6.90;99.90
20998;DHT22;10657;51.276;6.390;2023-12-20T13:47:37;6.90;99.90
20998;DHT22;10657;51.276;6.390;2023-12-20T13:50:05;7.00;99.90
20998;DHT22;10657;51.276;6.390;2023-12-20T13:52:32;7.00;99.90
20998;DHT22;10657;51.276;6.390;2023-12-20T13:55:04;7.00;99.90
20998;DHT22;10657;51.276;6.390;2023-12-20T13:57:35;7.00;99.90
20998;DHT22;10657;51.276;6.390;2023-12-20T14:00:09;7.00;99.90
20998;DHT22;10657;51.276;6.390;2023-12-20T14:02:41;7.00;99.90
20998;DHT22;10657;51.276;6.390;2023-12-20T14:05:09;7.00;99.90
20998;DHT22;10657;51.276;6.390;2023-12-20T14:07:39;7.00;99.90
20998;DHT22;10657;51.276;6.390;2023-12-20T14:10:06;7.10;99.90
20998;DHT22;10657;51.276;6.390;2023-12-20T14:12:33;7.10;99.90
20998;DHT22;10657;51.276;6.390;2023-12-20T14:15:03;7.10;99.90
20998;DHT22;10657;51.276;6.390;2023-12-20T14:17:29;7.10;99.90
20998;DHT22;10657;51.276;6.390;2023-12-20T14:19:58;7.10;99.90
20998;DHT22;10657;51.276;6.390;2023-12-20T14:22:25;7.10;99.90
20998;DHT22;10657;51.276;6.390;2023-12-20T14:24:52;7.10;99.90
20998;DHT22;10657;51.276;6.390;2023-12-20T14:27:18;7.10;99.90
20998;DHT22;10657;51.276;6.390;2023-12-20T14:29:49;7.20;99.90
20998;DHT22;10657;51.276;6.390;2023-12-20T14:32:18;7.20;99.90
20998;DHT22;10657;51.276;6.390;2023-12-20T14:34:45;7.20;99.90
20998;DHT22;10657;51.276;6.390;2023-12-20T14:37:15;7.20;99.90
20998;DHT22;10657;51.276;6.390;2023-12-20T14:39:43;7.20;99.90
20998;DHT22;10657;51.276;6.390;2023-12-20T14:42:13;7.20;99.90
20998;DHT22;10657;51.276;6.390;2023-12-20T14:44:40;7.20;99.90
20998;DHT22;10657;51.276;6.390;2023-12-20T14:47:07;7.30;99.90
20998;DHT22;10657;51.276;6.390;2023-12-20T14:49:34;7.20;99.90
20998;DHT22;10657;51.276;6.390;2023-12-20T14:52:02;7.30;99.90
20998;DHT22;10657;51.276;6.390;2023-12-20T14:54:29;7.30;99.90
20998;DHT22;10657;51.276;6.390;2023-12-20T14:56:57;7.30;99.90
20998;DHT22;10657;51.276;6.390;2023-12-20T14:59:31;7.30;99.90
20998;DHT22;10657;51.276;6.390;2023-12-20T15:01:58;7.30;99.90
20998;DHT22;10657;51.276;6.390;2023-12-20T15:04:25;7.30;99.90
20998;DHT22;10657;51.276;6.390;2023-12-20T15:06:55;7.40;99.90
20998;DHT22;10657;51.276;6.390;2023-12-20T15:09:22;7.40;99.90
20998;DHT22;10657;51.276;6.390;2023-12-20T15:11:49;7.40;99.90
20998;DHT22;10657;51.276;6.390;2023-12-20T15:14:16;7.40;99.90
20998;DHT22;10657;51.276;6.390;2023-12-20T15:16:46;7.40;99.90
20998;DHT22;10657;51.276;6.390;2023-12-20T15:19:16;7.40;99.90
20998;DHT22;10657;51.276;6.390;2023-12-20T15:21:43;7.40;99.90
20998;DHT22;10657;51.276;6.390;2023-12-20T15:24:13;7.40;99.90
20998;DHT22;10657;51.276;6.390;2023-12-20T15:26:46;7.40;99.90
20998;DHT22;10657;51.276;6.390;2023-12-20T15:29:13;7.40;99.90
20998;DHT22;10657;51.276;6.390;2023-12-20T15:31:47;7.40;99.90
20998;DHT22;10657;51.276;6.390;2023-12-20T15:34:15;7.40;99.90
20998;DHT22;10657;51.276;6.390;2023-12-20T15:36:42;7.40;99.90
20998;DHT22;10657;51.276;6.390;2023-12-20T15:39:09;7.40;99.90
20998;DHT22;10657;51.276;6.390;2023-12-20T15:41:39;7.40;99.90
20998;DHT22;10657;51.276;6.390;2023-12-20T15:44:06;7.30;99.90
20998;DHT22;10657;51.276;6.390;2023-12-20T15:46:33;7.30;99.90
20998;DHT22;10657;51.276;6.390;2023-12-20T15:49:00;7.40;99.90
20998;DHT22;10657;51.276;6.390;2023-12-20T15:51:27;7.40;99.90
20998;DHT22;10657;51.276;6.390;2023-12-20T15:53:54;7.40;99.90
20998;DHT22;10657;51.276;6.390;2023-12-20T15:56:20;7.40;99.90